Time;durP1;ratioP1;P1;durP2;ratioP2;P2;SDS_P1;SDS_P2;PMS_P1;PMS_P2;Temp;Humidity;BMP_temperature;BMP_pressure;BME280_temperature;BME280_humidity;BME280_pressure;Samples;Min_cycle;Max_cycle;Signal;HPM_P1;HPM_P2
2023/05/06 00:00:22;;;;;;;8.75;3.97;;;;;;;16.23;57.73;99766.09;3093923;28;20088;-74
2023/05/06 00:01:55;;;;;;;7.88;4.20;;;;;;;16.24;57.71;99769.56;3094066;28;20051;-74
2023/05/06 00:03:26;;;;;;;7.65;4.72;;;;;;;16.22;57.75;99764.41;3093389;28;20061;-74
2023/05/06 00:05:00;;;;;;;8.93;4.53;;;;;;;16.22;57.71;99769.69;3090496;28;20131;-74
2023/05/06 00:06:32;;;;;;;7.05;4.00;;;;;;;16.21;57.74;99768.00;3100822;28;20450;-73
2023/05/06 00:08:03;;;;;;;7.15;3.92;;;;;;;16.17;57.55;99760.44;3098456;28;20133;-73
2023/05/06 00:09:35;;;;;;;8.18;3.85;;;;;;;16.20;57.70;99768.09;3094128;28;20054;-74
2023/05/06 00:11:07;;;;;;;10.55;3.90;;;;;;;16.19;57.77;99766.44;3093150;28;20489;-73
2023/05/06 00:12:39;;;;;;;6.85;3.80;;;;;;;16.18;57.57;99765.59;3093873;28;20073;-73
2023/05/06 00:14:11;;;;;;;7.57;4.25;;;;;;;16.17;57.72;99766.50;3093840;28;20046;-72
2023/05/06 00:15:42;;;;;;;6.20;3.80;;;;;;;16.17;57.87;99763.06;3093859;28;20051;-72
2023/05/06 00:17:16;;;;;;;8.63;3.80;;;;;;;16.13;57.88;99763.25;3094019;28;20058;-72
2023/05/06 00:18:47;;;;;;;7.00;3.90;;;;;;;16.14;57.89;99764.94;3093761;28;20058;-72
2023/05/06 00:20:19;;;;;;;7.15;3.72;;;;;;;16.12;57.89;99768.63;3094291;28;20485;-72
2023/05/06 00:21:51;;;;;;;6.85;3.85;;;;;;;16.09;57.92;99755.69;3094074;28;20050;-72
2023/05/06 00:23:23;;;;;;;8.48;3.72;;;;;;;16.10;58.03;99760.84;3093457;28;20491;-71
2023/05/06 00:24:54;;;;;;;7.88;3.78;;;;;;;16.08;58.17;99760.09;3093716;28;20068;-70
2023/05/06 00:26:26;;;;;;;7.78;4.30;;;;;;;16.06;58.10;99755.91;3093861;28;20561;-73
2023/05/06 00:27:56;;;;;;;10.20;3.92;;;;;;;16.03;58.26;99756.09;3093924;28;20058;-73
2023/05/06 00:29:29;;;;;;;6.72;3.85;;;;;;;15.99;58.10;99755.47;3093778;28;20141;-71
2023/05/06 00:30:59;;;;;;;6.05;3.97;;;;;;;15.95;58.46;99748.78;3093701;28;20054;-71
2023/05/06 00:32:33;;;;;;;8.25;4.10;;;;;;;15.97;58.37;99759.16;3093792;28;20054;-71
2023/05/06 00:34:03;;;;;;;5.65;4.03;;;;;;;15.95;58.26;99758.44;3094227;28;20054;-71
2023/05/06 00:35:35;;;;;;;10.70;3.95;;;;;;;15.90;58.60;99762.19;3093457;28;20081;-71
2023/05/06 00:37:06;;;;;;;11.20;4.00;;;;;;;15.91;58.70;99761.28;3112500;28;20414;-71
2023/05/06 00:38:38;;;;;;;8.30;3.72;;;;;;;15.88;58.69;99764.13;3133871;28;20114;-69
2023/05/06 00:40:10;;;;;;;8.98;3.97;;;;;;;15.86;58.96;99766.00;3093860;28;20123;-70
2023/05/06 00:41:42;;;;;;;8.95;4.60;;;;;;;15.80;58.94;99755.06;3093636;28;20117;-70
2023/05/06 00:43:12;;;;;;;6.13;4.05;;;;;;;15.82;59.10;99766.28;3093150;28;20444;-70
2023/05/06 00:44:44;;;;;;;9.50;4.65;;;;;;;15.71;59.20;99753.06;3095294;28;20050;-70
2023/05/06 00:46:16;;;;;;;8.07;4.07;;;;;;;15.77;59.33;99765.78;3131976;28;20047;-69
2023/05/06 00:47:50;;;;;;;8.32;5.43;;;;;;;15.75;59.30;99757.16;3093644;28;20542;-72
2023/05/06 00:49:22;;;;;;;8.60;4.63;;;;;;;15.72;59.44;99765.25;3081676;28;20635;-70
2023/05/06 00:50:54;;;;;;;6.40;4.55;;;;;;;15.64;59.61;99752.59;3093351;28;20446;-70
2023/05/06 00:52:25;;;;;;;9.65;4.45;;;;;;;15.66;59.83;99759.41;3093853;28;20062;-71
2023/05/06 00:53:57;;;;;;;13.13;5.05;;;;;;;15.60;59.80;99759.81;3125293;28;20048;-70
2023/05/06 00:55:30;;;;;;;11.02;4.32;;;;;;;15.61;59.82;99765.91;3093739;28;20159;-71
2023/05/06 00:57:01;;;;;;;7.10;4.68;;;;;;;15.59;60.09;99768.66;3093803;28;20128;-70
2023/05/06 00:58:34;;;;;;;9.73;4.78;;;;;;;15.58;60.02;99766.13;3093137;28;20092;-71
2023/05/06 01:00:07;;;;;;;7.68;5.32;;;;;;;15.55;60.17;99766.31;3089954;28;20077;-71
2023/05/06 01:01:39;;;;;;;7.57;5.07;;;;;;;15.51;60.30;99765.69;3093354;28;20047;-71
2023/05/06 01:03:12;;;;;;;8.05;4.95;;;;;;;15.51;60.48;99770.09;3093549;28;20054;-71
2023/05/06 01:04:44;;;;;;;10.05;4.82;;;;;;;15.41;60.38;99756.72;3093171;28;20059;-72
2023/05/06 01:06:23;;;;;;;8.13;5.60;;;;;;;15.44;60.56;99762.63;3093771;28;20081;-71
2023/05/06 01:08:06;;;;;;;8.95;5.47;;;;;;;15.38;60.43;99765.66;3093342;28;20050;-71
2023/05/06 01:09:42;;;;;;;9.73;5.45;;;;;;;15.37;60.68;99768.38;3093478;28;20061;-71
2023/05/06 01:11:20;;;;;;;8.88;5.45;;;;;;;15.25;60.95;99759.53;3090450;28;20096;-71
2023/05/06 01:13:01;;;;;;;10.95;5.80;;;;;;;15.32;61.13;99759.97;3087385;28;20054;-70
2023/05/06 01:14:40;;;;;;;8.55;5.82;;;;;;;15.30;60.93;99772.34;3093546;28;20412;-70
2023/05/06 01:16:15;;;;;;;8.52;5.63;;;;;;;15.26;61.05;99763.81;3093682;28;20099;-70
2023/05/06 01:17:50;;;;;;;7.68;5.28;;;;;;;15.22;61.10;99760.56;3093667;28;20621;-70
2023/05/06 01:19:40;;;;;;;8.50;5.80;;;;;;;15.22;61.04;99759.72;3093369;28;20129;-70
2023/05/06 01:21:13;;;;;;;9.73;6.25;;;;;;;15.13;61.10;99742.78;3093151;28;20136;-70
2023/05/06 01:22:44;;;;;;;12.57;7.25;;;;;;;15.17;61.31;99760.03;3093448;28;20569;-70
2023/05/06 01:24:17;;;;;;;10.77;6.30;;;;;;;15.11;61.51;99749.91;3093602;28;20099;-70
2023/05/06 01:25:49;;;;;;;9.68;6.30;;;;;;;15.14;61.50;99759.38;3093493;28;20052;-72
2023/05/06 01:27:21;;;;;;;8.68;6.05;;;;;;;15.13;61.93;99760.31;3093343;28;20136;-72
2023/05/06 01:28:53;;;;;;;11.43;6.07;;;;;;;15.10;61.43;99750.03;3092800;28;20136;-72
2023/05/06 01:30:34;;;;;;;8.48;5.90;;;;;;;15.08;61.31;99751.91;3093738;28;20553;-72
2023/05/06 01:32:17;;;;;;;10.65;6.20;;;;;;;15.03;61.38;99752.22;3093385;28;20043;-70
2023/05/06 01:34:09;;;;;;;12.32;6.43;;;;;;;14.90;61.47;99741.66;3093397;28;20153;-70
2023/05/06 01:35:53;;;;;;;12.30;6.13;;;;;;;14.93;61.55;99756.34;3121144;28;20109;-70
2023/05/06 01:37:31;;;;;;;11.10;6.45;;;;;;;14.96;61.50;99756.16;3117719;28;20066;-73
2023/05/06 01:39:12;;;;;;;10.23;5.60;;;;;;;14.94;61.34;99760.69;3093365;28;20111;-74
2023/05/06 01:40:48;;;;;;;13.93;6.43;;;;;;;14.86;61.38;99742.78;3093413;28;20047;-73
2023/05/06 01:42:22;;;;;;;9.95;6.50;;;;;;;14.88;61.35;99748.78;3093520;28;20054;-72
2023/05/06 01:43:54;;;;;;;10.73;6.70;;;;;;;14.81;61.39;99739.63;3093091;28;20062;-72
2023/05/06 01:45:29;;;;;;;12.98;6.30;;;;;;;14.89;61.51;99752.25;3093656;28;20103;-73
2023/05/06 01:47:01;;;;;;;9.57;5.97;;;;;;;14.86;61.38;99755.06;3089378;28;20486;-73
2023/05/06 01:48:35;;;;;;;10.75;6.20;;;;;;;14.81;61.43;99749.28;3093296;28;20156;-73
2023/05/06 01:50:08;;;;;;;8.48;6.35;;;;;;;14.56;61.73;99719.38;3093428;28;20050;-73
2023/05/06 01:51:39;;;;;;;9.00;6.22;;;;;;;14.69;61.68;99738.63;3093404;28;20144;-73
2023/05/06 01:53:10;;;;;;;13.30;6.18;;;;;;;14.69;61.56;99741.25;3101168;28;20051;-73
2023/05/06 01:54:42;;;;;;;12.70;6.28;;;;;;;14.68;61.64;99742.19;3141775;28;20183;-73
2023/05/06 01:56:16;;;;;;;8.25;5.95;;;;;;;14.67;61.63;99744.88;3093320;28;20058;-74
2023/05/06 01:57:46;;;;;;;9.50;5.80;;;;;;;14.64;61.95;99738.09;3091956;28;20058;-73
2023/05/06 01:59:18;;;;;;;9.48;5.78;;;;;;;14.62;61.71;99739.97;3092891;28;20047;-71
2023/05/06 02:00:50;;;;;;;9.82;5.68;;;;;;;14.60;61.95;99736.56;3092862;28;20062;-70
2023/05/06 02:02:22;;;;;;;8.65;5.95;;;;;;;14.61;61.74;99740.91;3093366;28;20466;-68
2023/05/06 02:03:53;;;;;;;9.23;5.70;;;;;;;14.47;61.93;99720.75;3092987;28;20047;-69
2023/05/06 02:05:25;;;;;;;7.20;5.18;;;;;;;14.54;62.11;99736.97;3092871;28;20428;-69
2023/05/06 02:06:57;;;;;;;8.60;5.10;;;;;;;14.50;62.15;99740.69;3092744;28;20046;-69
2023/05/06 02:08:29;;;;;;;9.10;5.35;;;;;;;14.51;62.25;99742.38;3093294;28;20103;-69
2023/05/06 02:10:01;;;;;;;10.50;5.53;;;;;;;14.51;62.34;99740.63;3094144;28;20054;-69
2023/05/06 02:11:34;;;;;;;9.27;5.30;;;;;;;14.50;62.28;99748.56;3102191;28;20061;-69
2023/05/06 02:13:05;;;;;;;8.00;5.10;;;;;;;14.48;62.39;99745.19;3094628;28;20100;-69
2023/05/06 02:14:37;;;;;;;9.32;5.22;;;;;;;14.48;62.24;99745.19;3095460;28;20050;-69
2023/05/06 02:16:08;;;;;;;7.55;4.72;;;;;;;14.47;62.30;99735.66;3095176;28;20076;-69
2023/05/06 02:17:40;;;;;;;8.77;5.10;;;;;;;14.45;62.50;99735.72;3094889;28;20106;-69
2023/05/06 02:19:12;;;;;;;9.68;5.72;;;;;;;14.42;62.55;99737.69;3095011;28;20078;-69
2023/05/06 02:20:44;;;;;;;8.82;5.82;;;;;;;14.43;62.75;99739.38;3095098;28;20101;-68
2023/05/06 02:22:14;;;;;;;9.63;5.57;;;;;;;14.39;62.78;99740.50;3095189;28;20100;-69
2023/05/06 02:23:46;;;;;;;7.55;5.00;;;;;;;14.39;62.72;99738.72;3089222;28;20046;-69
2023/05/06 02:25:18;;;;;;;8.25;4.90;;;;;;;14.37;62.89;99739.75;3094770;28;20103;-69
2023/05/06 02:26:51;;;;;;;8.38;4.90;;;;;;;14.37;63.00;99729.28;3095469;28;20066;-69
2023/05/06 02:28:23;;;;;;;11.32;5.68;;;;;;;14.33;63.09;99729.47;3095032;28;20051;-69
2023/05/06 02:29:54;;;;;;;6.80;4.75;;;;;;;14.37;63.03;99731.91;3095324;28;20055;-69
2023/05/06 02:31:26;;;;;;;7.95;5.20;;;;;;;14.29;62.99;99721.91;3095259;28;20050;-69
2023/05/06 02:32:57;;;;;;;8.07;5.15;;;;;;;14.38;62.96;99741.47;3095162;28;20050;-69
2023/05/06 02:34:29;;;;;;;7.75;5.13;;;;;;;14.39;63.00;99737.88;3095016;28;20115;-69
2023/05/06 02:36:01;;;;;;;8.40;4.95;;;;;;;14.39;63.05;99736.09;3095105;28;20126;-73
2023/05/06 02:37:32;;;;;;;7.30;4.93;;;;;;;14.39;63.00;99740.50;3094851;28;20096;-73
2023/05/06 02:39:04;;;;;;;7.00;4.75;;;;;;;14.41;62.99;99736.03;3094857;28;20481;-74
2023/05/06 02:40:36;;;;;;;8.85;5.88;;;;;;;14.42;62.90;99737.69;3117922;28;20449;-74
2023/05/06 02:42:10;;;;;;;8.93;5.28;;;;;;;14.44;63.19;99741.91;3125097;28;20108;-74
2023/05/06 02:43:42;;;;;;;8.90;5.60;;;;;;;14.43;63.11;99734.97;3094879;28;20061;-74
2023/05/06 02:45:12;;;;;;;7.72;4.85;;;;;;;14.45;63.21;99734.88;3094880;28;20096;-73
2023/05/06 02:46:44;;;;;;;8.88;5.53;;;;;;;14.46;62.98;99736.56;3093962;28;20485;-73
2023/05/06 02:48:15;;;;;;;9.63;5.07;;;;;;;14.46;63.20;99733.94;3095157;28;20046;-73
2023/05/06 02:49:47;;;;;;;9.95;5.13;;;;;;;14.43;63.01;99734.13;3095146;28;20183;-73
2023/05/06 02:51:19;;;;;;;8.27;5.00;;;;;;;14.45;63.19;99733.09;3094586;28;20054;-73
2023/05/06 02:52:51;;;;;;;7.18;5.32;;;;;;;14.46;62.99;99733.94;3094609;28;20582;-73
2023/05/06 02:54:22;;;;;;;8.90;5.38;;;;;;;14.45;63.22;99738.34;3132397;28;20050;-74
2023/05/06 02:55:54;;;;;;;8.48;5.43;;;;;;;14.45;62.98;99737.50;3094760;28;20042;-73
2023/05/06 02:57:27;;;;;;;8.05;5.05;;;;;;;14.43;63.00;99737.59;3094462;28;20063;-73
2023/05/06 02:58:58;;;;;;;;;;;;;;;14.34;63.21;99746.88;3095152;28;20061;-73
2023/05/06 03:00:30;;;;;;;9.32;4.47;;;;;;;14.36;63.25;99738.09;3094597;28;19926;-73
2023/05/06 03:02:02;;;;;;;7.75;5.10;;;;;;;14.37;63.10;99737.13;3094792;28;20166;-73
2023/05/06 03:03:33;;;;;;;13.15;8.18;;;;;;;14.38;63.30;99744.09;3094613;28;20050;-73
2023/05/06 03:05:05;;;;;;;20.50;13.30;;;;;;;14.34;63.37;99736.41;3094515;28;20129;-71
2023/05/06 03:06:37;;;;;;;31.63;20.80;;;;;;;14.39;63.28;99737.88;3095079;28;20058;-73
2023/05/06 03:08:09;;;;;;;24.75;16.02;;;;;;;14.22;63.31;99710.09;3094629;28;20062;-72
2023/05/06 03:09:41;;;;;;;16.08;10.48;;;;;;;14.40;63.18;99744.81;3094511;28;20111;-72
2023/05/06 03:11:12;;;;;;;10.93;8.10;;;;;;;14.39;63.11;99733.50;3092259;28;20148;-72
2023/05/06 03:12:46;;;;;;;12.00;7.93;;;;;;;14.33;63.18;99723.38;3091058;28;20057;-71
2023/05/06 03:14:18;;;;;;;8.93;5.78;;;;;;;14.38;63.08;99730.97;3094402;28;20047;-72
2023/05/06 03:15:52;;;;;;;8.48;5.50;;;;;;;14.42;62.94;99735.09;3094503;28;20158;-71
2023/05/06 03:17:24;;;;;;;9.02;5.25;;;;;;;14.40;63.44;99734.31;3094167;28;20050;-71
2023/05/06 03:18:56;;;;;;;7.75;5.38;;;;;;;14.43;63.02;99742.00;3094706;28;20136;-71
2023/05/06 03:20:28;;;;;;;7.88;5.32;;;;;;;14.44;63.45;99743.69;3094792;28;20054;-72
2023/05/06 03:22:00;;;;;;;9.85;5.70;;;;;;;14.43;63.40;99737.59;3093981;28;20122;-71
2023/05/06 03:23:32;;;;;;;9.43;5.43;;;;;;;14.46;63.31;99736.56;3094668;28;20046;-71
2023/05/06 03:25:05;;;;;;;11.88;6.50;;;;;;;14.28;63.35;99705.31;3094385;28;20507;-71
2023/05/06 03:26:36;;;;;;;10.10;5.78;;;;;;;14.47;63.17;99746.13;3109221;28;20141;-71
2023/05/06 03:28:11;;;;;;;8.80;5.60;;;;;;;14.49;63.33;99746.84;3094437;28;20050;-71
2023/05/06 03:29:42;;;;;;;9.25;6.00;;;;;;;14.48;63.19;99740.78;3094089;28;20447;-71
2023/05/06 03:31:14;;;;;;;12.35;5.57;;;;;;;14.50;63.23;99751.19;3094485;28;20066;-74
2023/05/06 03:32:46;;;;;;;12.48;5.95;;;;;;;14.53;63.18;99753.63;3094241;28;20047;-74
2023/05/06 03:34:18;;;;;;;11.05;6.20;;;;;;;14.54;62.95;99758.75;3094592;28;20049;-74
2023/05/06 03:35:50;;;;;;;8.02;5.25;;;;;;;14.55;62.78;99764.84;3094383;28;20054;-73
2023/05/06 03:37:22;;;;;;;9.05;5.45;;;;;;;14.52;63.07;99759.78;3093838;28;20050;-73
2023/05/06 03:38:54;;;;;;;8.55;5.28;;;;;;;14.52;62.80;99765.91;3094334;28;20055;-74
2023/05/06 03:40:25;;;;;;;9.82;5.50;;;;;;;14.56;62.76;99769.16;3094633;28;20149;-74
2023/05/06 03:41:57;;;;;;;9.20;5.25;;;;;;;14.54;62.68;99765.78;3094223;28;20046;-74
2023/05/06 03:43:30;;;;;;;7.05;4.60;;;;;;;14.57;62.62;99770.84;3094245;28;20111;-74
2023/05/06 03:45:02;;;;;;;9.30;5.38;;;;;;;14.56;62.79;99763.94;3094149;28;20507;-72
2023/05/06 03:46:33;;;;;;;9.98;5.45;;;;;;;14.55;62.94;99775.31;3090842;28;20137;-74
2023/05/06 03:48:05;;;;;;;7.93;4.72;;;;;;;14.51;63.01;99755.47;3094544;28;20054;-74
2023/05/06 03:49:37;;;;;;;11.63;5.32;;;;;;;14.61;62.72;99776.72;3085379;28;20090;-74
2023/05/06 03:51:09;;;;;;;8.40;5.35;;;;;;;14.62;62.89;99773.19;3093942;28;20099;-74
2023/05/06 03:52:41;;;;;;;6.78;4.85;;;;;;;14.60;62.78;99775.88;3094399;28;20126;-74
2023/05/06 03:54:12;;;;;;;11.45;6.13;;;;;;;14.62;62.62;99779.28;3145622;28;20052;-74
2023/05/06 03:55:43;;;;;;;9.80;5.32;;;;;;;14.55;62.87;99765.72;3097099;28;20477;-74
2023/05/06 03:57:15;;;;;;;25.02;6.18;;;;;;;14.68;62.54;99786.75;3088934;28;20098;-69
2023/05/06 03:58:49;;;;;;;9.30;5.57;;;;;;;14.66;62.55;99779.91;3088742;28;20054;-70
2023/05/06 04:00:21;;;;;;;12.35;5.68;;;;;;;14.70;62.54;99784.88;3089018;28;20164;-70
2023/05/06 04:01:53;;;;;;;9.57;5.10;;;;;;;14.71;62.46;99791.78;3089006;28;20069;-70
2023/05/06 04:03:24;;;;;;;9.77;5.20;;;;;;;14.74;62.37;99778.50;3088881;28;20054;-71
2023/05/06 04:04:56;;;;;;;9.70;5.07;;;;;;;14.76;62.12;99787.13;3089012;28;20046;-70
2023/05/06 04:06:28;;;;;;;8.88;5.15;;;;;;;14.75;62.04;99782.78;3089191;28;20590;-72
2023/05/06 04:07:59;;;;;;;7.95;5.07;;;;;;;14.65;61.97;99768.59;3088754;28;20073;-75
2023/05/06 04:09:32;;;;;;;8.43;5.20;;;;;;;14.77;61.75;99786.16;3088325;28;20066;-72
2023/05/06 04:11:04;;;;;;;6.95;5.25;;;;;;;14.76;61.78;99783.66;3091676;28;20050;-74
2023/05/06 04:12:36;;;;;;;11.02;4.88;;;;;;;14.79;61.76;99802.66;3089016;28;20054;-69
2023/05/06 04:14:09;;;;;;;8.35;4.78;;;;;;;14.56;61.55;99751.66;3088489;28;20065;-69
2023/05/06 04:15:40;;;;;;;;;;;;;;;14.74;61.69;99796.84;3089507;28;20111;-73
2023/05/06 04:17:12;;;;;;;10.05;4.85;;;;;;;14.75;61.82;99798.53;3088778;28;20545;-72
2023/05/06 04:18:44;;;;;;;8.07;5.40;;;;;;;14.77;61.53;99794.03;3088842;28;20116;-72
2023/05/06 04:20:15;;;;;;;8.80;4.68;;;;;;;14.76;61.33;99797.59;3087964;28;20137;-74
2023/05/06 04:21:47;;;;;;;7.80;4.95;;;;;;;14.79;61.13;99791.31;3088763;28;20511;-75
2023/05/06 04:23:21;;;;;;;6.38;4.47;;;;;;;14.63;60.96;99767.84;3089046;28;20107;-74
2023/05/06 04:24:52;;;;;;;;;;;;;;;14.71;61.13;99799.66;3089159;28;20551;-71
2023/05/06 04:26:24;;;;;;;6.20;4.47;;;;;;;14.46;61.11;99754.91;3089121;28;19983;-72
2023/05/06 04:27:55;;;;;;;7.50;5.13;;;;;;;14.64;61.04;99773.91;3088356;28;20530;-71
2023/05/06 04:29:28;;;;;;;8.73;5.00;;;;;;;14.83;61.10;99797.22;3088565;28;20095;-74
2023/05/06 04:31:01;;;;;;;9.00;5.05;;;;;;;14.85;60.87;99797.94;3088866;28;20119;-71
2023/05/06 04:32:33;;;;;;;7.47;4.57;;;;;;;14.88;60.75;99795.13;3131965;28;20067;-77
2023/05/06 04:34:05;;;;;;;12.10;5.20;;;;;;;14.90;60.87;99796.72;3088151;28;20141;-73
2023/05/06 04:35:37;;;;;;;8.52;4.88;;;;;;;14.86;60.67;99783.91;3088656;28;20058;-76
2023/05/06 04:37:09;;;;;;;8.40;5.28;;;;;;;14.93;60.45;99795.69;3088490;28;20058;-74
2023/05/06 04:38:41;;;;;;;7.85;5.10;;;;;;;14.86;60.27;99797.03;3088692;28;20061;-81
2023/05/06 04:40:14;;;;;;;8.40;5.05;;;;;;;14.96;60.33;99798.94;3089810;28;20054;-81
2023/05/06 04:41:45;;;;;;;13.60;8.48;;;;;;;14.97;60.49;99802.44;3089277;28;20054;-76
2023/05/06 04:43:17;;;;;;;31.25;16.73;;;;;;;14.96;60.25;99793.69;3088491;28;20417;-77
2023/05/06 04:44:51;;;;;;;9.35;6.28;;;;;;;15.04;60.09;99805.50;3084289;28;20047;-80
2023/05/06 04:46:22;;;;;;;;;;;;;;;15.00;60.37;99808.31;3082503;28;20110;-76
2023/05/06 04:47:54;;;;;;;15.43;7.53;;;;;;;15.04;60.30;99802.88;3088889;28;20386;-78
2023/05/06 04:49:26;;;;;;;7.50;5.20;;;;;;;15.10;60.17;99799.88;3088706;28;20054;-75
2023/05/06 04:50:58;;;;;;;6.72;4.45;;;;;;;15.14;60.17;99804.81;3088470;28;20062;-72
2023/05/06 04:52:29;;;;;;;9.25;5.22;;;;;;;15.21;60.09;99810.53;3088874;28;20057;-74
2023/05/06 04:54:01;;;;;;;9.25;4.97;;;;;;;15.28;59.95;99808.34;3126281;28;20055;-78
2023/05/06 04:55:34;;;;;;;17.67;5.90;;;;;;;15.35;60.00;99807.84;3088869;28;20058;-77
2023/05/06 04:57:06;;;;;;;8.20;4.70;;;;;;;15.40;59.80;99810.16;3089100;28;20059;-79
2023/05/06 04:58:38;;;;;;;12.13;5.38;;;;;;;15.46;59.83;99813.22;3088954;28;20062;-74
2023/05/06 05:00:13;;;;;;;11.82;5.90;;;;;;;15.54;59.60;99817.97;3088670;28;20364;-73
2023/05/06 05:01:45;;;;;;;7.95;4.93;;;;;;;15.60;59.42;99812.31;3088665;28;20054;-75
2023/05/06 05:03:17;;;;;;;14.43;8.98;;;;;;;15.68;59.35;99812.69;3086867;28;20511;-73
2023/05/06 05:04:49;;;;;;;10.07;4.97;;;;;;;15.79;59.17;99819.00;3088179;28;20061;-71
2023/05/06 05:06:21;;;;;;;7.20;4.32;;;;;;;15.91;59.03;99815.56;3088477;28;20620;-73
2023/05/06 05:07:53;;;;;;;6.90;5.10;;;;;;;16.00;58.57;99807.09;3088063;28;20050;-72
2023/05/06 05:09:25;;;;;;;8.98;5.20;;;;;;;16.08;58.59;99809.19;3088568;28;20130;-71
2023/05/06 05:10:57;;;;;;;7.50;4.82;;;;;;;16.13;58.36;99815.81;3092482;28;20115;-69
2023/05/06 05:12:29;;;;;;;7.28;4.90;;;;;;;16.00;58.23;99772.94;3090305;28;20050;-73
2023/05/06 05:14:01;;;;;;;9.73;4.72;;;;;;;16.35;57.96;99809.06;3088214;28;20046;-74
2023/05/06 05:15:34;;;;;;;7.28;4.35;;;;;;;16.54;57.82;99811.28;3088136;28;20058;-73
2023/05/06 05:17:06;;;;;;;;;;;;;;;16.76;58.30;99808.00;3095086;28;20054;-74
2023/05/06 05:18:38;;;;;;;9.48;4.15;;;;;;;17.06;57.72;99811.06;3088413;28;20369;-75
2023/05/06 05:20:10;;;;;;;9.43;4.68;;;;;;;17.50;56.72;99817.53;3088435;28;20050;-71
2023/05/06 05:21:42;;;;;;;5.85;3.92;;;;;;;17.86;55.70;99814.94;3088285;28;20085;-70
2023/05/06 05:23:13;;;;;;;6.30;4.40;;;;;;;18.04;54.65;99797.72;3088293;28;20054;-72
2023/05/06 05:24:45;;;;;;;8.90;4.53;;;;;;;18.27;54.04;99814.44;3088161;28;20054;-74
2023/05/06 05:26:16;;;;;;;10.25;4.75;;;;;;;18.58;53.57;99799.72;3088564;28;20058;-75
2023/05/06 05:27:48;;;;;;;8.10;4.68;;;;;;;18.97;52.67;99794.91;3088348;28;20058;-76
2023/05/06 05:29:20;;;;;;;6.90;4.80;;;;;;;19.42;51.92;99809.78;3088068;28;20047;-73
2023/05/06 05:30:53;;;;;;;6.75;4.65;;;;;;;19.69;50.38;99810.16;3088364;28;20108;-72
2023/05/06 05:32:25;;;;;;;;;;;;;;;19.85;51.16;99806.28;3089058;28;20518;-72
2023/05/06 05:33:57;;;;;;;9.80;4.40;;;;;;;19.90;50.73;99810.19;3102887;28;19948;-72
2023/05/06 05:35:29;;;;;;;7.32;4.70;;;;;;;19.92;50.01;99807.41;3088339;28;20057;-71
2023/05/06 05:37:01;;;;;;;6.80;5.13;;;;;;;19.95;49.62;99809.81;3088211;28;20050;-75
2023/05/06 05:38:33;;;;;;;6.97;5.18;;;;;;;19.89;49.30;99810.31;3088393;28;20104;-74
2023/05/06 05:40:06;;;;;;;7.63;5.13;;;;;;;19.76;48.61;99815.81;3088400;28;20050;-76
2023/05/06 05:41:38;;;;;;;;;;;;;;;19.55;49.41;99813.94;3088722;28;20123;-70
2023/05/06 05:43:10;;;;;;;10.85;4.22;;;;;;;19.46;48.88;99814.69;3087977;28;20425;-72
2023/05/06 05:44:42;;;;;;;7.18;4.85;;;;;;;19.35;48.62;99809.44;3089217;28;20685;-75
2023/05/06 05:46:15;;;;;;;7.82;4.40;;;;;;;19.33;49.10;99808.72;3087505;28;20100;-71
2023/05/06 05:47:47;;;;;;;7.43;5.13;;;;;;;19.29;49.13;99808.16;3090556;28;20107;-72
2023/05/06 05:49:18;;;;;;;9.43;4.80;;;;;;;19.31;48.88;99808.88;3085380;28;20058;-75
2023/05/06 05:50:50;;;;;;;8.25;4.57;;;;;;;19.32;49.12;99815.81;3090461;28;20096;-73
2023/05/06 05:52:22;;;;;;;9.60;5.03;;;;;;;19.34;48.69;99813.03;3090397;28;20062;-75
2023/05/06 05:53:53;;;;;;;8.05;5.30;;;;;;;19.35;48.78;99808.63;3128068;28;20336;-74
2023/05/06 05:55:28;;;;;;;7.55;4.55;;;;;;;19.44;48.81;99811.34;3102720;28;20058;-78
2023/05/06 05:56:59;;;;;;;5.57;4.13;;;;;;;19.48;48.79;99811.91;3089673;28;20090;-69
2023/05/06 05:58:30;;;;;;;8.18;4.88;;;;;;;19.53;48.68;99810.56;3090284;28;20460;-68
2023/05/06 06:00:03;;;;;;;5.93;4.20;;;;;;;19.66;48.12;99807.78;3090152;28;20584;-68
2023/05/06 06:01:36;;;;;;;6.40;3.60;;;;;;;19.76;48.33;99814.00;3094424;28;20811;-75
2023/05/06 06:03:08;;;;;;;;;;;;;;;19.86;48.78;99810.59;3091524;28;20054;-68
2023/05/06 06:04:40;;;;;;;5.57;3.97;;;;;;;20.11;48.04;99806.69;3088631;28;19933;-69
2023/05/06 06:06:12;;;;;;;5.18;3.63;;;;;;;20.35;47.82;99814.34;3087750;28;20436;-69
2023/05/06 06:07:44;;;;;;;5.72;4.35;;;;;;;20.56;47.11;99811.72;3089605;28;20061;-72
2023/05/06 06:09:16;;;;;;;6.65;4.25;;;;;;;20.77;46.84;99806.34;3090357;28;20081;-71
2023/05/06 06:10:48;;;;;;;6.47;4.10;;;;;;;20.97;46.30;99813.38;3090317;28;20559;-73
2023/05/06 06:12:20;;;;;;;5.53;3.83;;;;;;;21.12;45.84;99814.66;3088956;28;20050;-73
2023/05/06 06:13:52;;;;;;;7.50;4.32;;;;;;;21.08;45.14;99815.06;3089029;28;20061;-72
2023/05/06 06:15:24;;;;;;;9.30;3.78;;;;;;;21.08;44.62;99820.34;3086843;28;20156;-70
2023/05/06 06:16:57;;;;;;;7.72;4.22;;;;;;;20.93;44.80;99806.66;3088156;28;20057;-72
2023/05/06 06:18:28;;;;;;;;;;;;;;;20.82;45.34;99814.72;3090565;28;20171;-71
2023/05/06 06:20:00;;;;;;;7.25;3.78;;;;;;;20.76;44.76;99816.06;3090188;28;19977;-69
2023/05/06 06:21:32;;;;;;;4.70;3.60;;;;;;;20.74;44.73;99814.56;3090255;28;20059;-70
2023/05/06 06:23:04;;;;;;;7.68;3.95;;;;;;;20.70;44.42;99802.56;3089778;28;20519;-67
2023/05/06 06:24:36;;;;;;;6.60;3.75;;;;;;;20.63;44.52;99812.84;3091477;28;20082;-69
2023/05/06 06:26:08;;;;;;;6.50;3.80;;;;;;;20.42;44.67;99795.19;3148021;28;20113;-73
2023/05/06 06:27:40;;;;;;;9.93;3.78;;;;;;;20.41;44.86;99806.75;3094453;28;20055;-72
2023/05/06 06:29:11;;;;;;;6.40;3.50;;;;;;;20.37;44.75;99810.59;3089602;28;20062;-70
2023/05/06 06:30:43;;;;;;;4.60;3.58;;;;;;;20.26;44.91;99807.19;3089846;28;20103;-68
2023/05/06 06:32:17;;;;;;;4.95;3.30;;;;;;;20.16;45.21;99812.44;3089566;28;20050;-70
2023/05/06 06:33:51;;;;;;;6.85;3.83;;;;;;;20.08;45.25;99807.78;3089876;28;20100;-70
2023/05/06 06:35:23;;;;;;;4.80;3.22;;;;;;;20.09;45.58;99806.00;3085783;28;20058;-69
2023/05/06 06:36:55;;;;;;;8.25;4.05;;;;;;;20.09;45.72;99801.56;3089796;28;20101;-72
2023/05/06 06:38:27;;;;;;;7.35;3.55;;;;;;;19.96;45.48;99777.09;3086573;28;20054;-72
2023/05/06 06:39:58;;;;;;;4.80;2.92;;;;;;;20.19;45.53;99806.88;3089652;28;20214;-72
2023/05/06 06:41:30;;;;;;;8.32;3.53;;;;;;;20.18;45.51;99810.50;3089957;28;20641;-65
2023/05/06 06:43:01;;;;;;;4.88;3.50;;;;;;;20.18;45.33;99806.06;3089645;28;20061;-66
2023/05/06 06:44:33;;;;;;;6.50;3.78;;;;;;;20.22;45.29;99807.47;3089676;28;20100;-67
2023/05/06 06:46:05;;;;;;;5.32;3.67;;;;;;;20.25;45.20;99809.00;3084677;28;20135;-70
2023/05/06 06:47:38;;;;;;;4.28;3.38;;;;;;;20.30;45.52;99806.81;3083783;28;20058;-68
2023/05/06 06:49:10;;;;;;;6.60;3.67;;;;;;;20.33;45.40;99801.25;3087469;28;20382;-68
2023/05/06 06:50:42;;;;;;;7.65;3.78;;;;;;;20.41;45.13;99797.97;3089649;28;20050;-72
2023/05/06 06:52:14;;;;;;;7.53;3.33;;;;;;;20.48;45.00;99787.69;3089760;28;20080;-67
2023/05/06 06:53:47;;;;;;;5.65;3.60;;;;;;;20.64;45.34;99801.28;3091489;28;20058;-67
2023/05/06 06:55:20;;;;;;;5.22;3.72;;;;;;;20.74;45.07;99806.63;3088550;28;20107;-67
2023/05/06 06:56:54;;;;;;;8.20;3.97;;;;;;;20.79;44.92;99799.09;3088025;28;20050;-69
2023/05/06 06:58:27;;;;;;;9.90;3.53;;;;;;;20.95;44.64;99799.44;3090748;28;20054;-69
2023/05/06 06:59:59;;;;;;;8.32;3.63;;;;;;;21.02;44.12;99805.00;3095394;28;20153;-70
2023/05/06 07:01:31;;;;;;;5.97;3.47;;;;;;;21.13;44.46;99811.03;3089602;28;20046;-72
2023/05/06 07:03:03;;;;;;;9.07;4.22;;;;;;;21.00;44.02;99777.81;3085376;28;20056;-74
2023/05/06 07:04:35;;;;;;;48.70;28.60;;;;;;;21.28;43.66;99808.00;3089341;28;20046;-75
2023/05/06 07:06:08;;;;;;;9.65;5.53;;;;;;;21.39;43.44;99815.00;3089468;28;20567;-70
2023/05/06 07:07:40;;;;;;;5.57;3.50;;;;;;;21.47;43.35;99809.84;3089630;28;20054;-68
2023/05/06 07:09:12;;;;;;;4.63;3.45;;;;;;;21.56;43.23;99809.88;3089650;28;20050;-74
2023/05/06 07:10:44;;;;;;;4.07;3.20;;;;;;;21.63;43.07;99809.31;3089492;28;20080;-71
2023/05/06 07:12:16;;;;;;;5.18;3.22;;;;;;;21.70;42.98;99807.75;3079482;28;20137;-71
2023/05/06 07:13:48;;;;;;;8.02;3.88;;;;;;;21.76;42.60;99804.53;3089095;28;20108;-74
2023/05/06 07:15:20;;;;;;;4.55;3.28;;;;;;;21.84;42.67;99801.19;3077811;28;20520;-70